Time;durP1;ratioP1;P1;durP2;ratioP2;P2;SDS_P1;SDS_P2;PMS_P1;PMS_P2;Temp;Humidity;BMP_temperature;BMP_pressure;BME280_temperature;BME280_humidity;BME280_pressure;Samples;Min_cycle;Max_cycle;Signal;HPM_P1;HPM_P2
2021/01/22 00:01:53;;;;;;;;;;;;;;;;;;5032872;28;1173;-55
2021/01/22 00:04:19;;;;;;;;;;;;;;;;;;5032934;28;1072;-54
2021/01/22 00:06:45;;;;;;;;;;;;;;;;;;5032690;28;1166;-54
2021/01/22 00:09:11;;;;;;;;;;;;;;;;;;5032740;28;1602;-54
2021/01/22 00:11:36;;;;;;;;;;;;;;;;;;5034232;28;851;-54
2021/01/22 00:14:02;;;;;;;;;;;;;;;;;;5032669;28;1965;-54
2021/01/22 00:16:27;;;;;;;;;;;;;;;;;;5033188;28;2220;-60
2021/01/22 00:18:53;;;;;;;;;;;;;;;;;;5034070;28;806;-55
2021/01/22 00:21:18;;;;;;;;;;;;;;;;;;5033755;28;778;-54
2021/01/22 00:23:43;;;;;;;;;;;;;;;;;;5032503;28;1619;-55
2021/01/22 00:26:09;;;;;;;;;;;;;;;;;;5033246;28;1282;-55
2021/01/22 00:28:35;;;;;;;;;;;;;;;;;;5032474;28;1372;-54
2021/01/22 00:31:00;;;;;;;;;;;;;;;;;;5033658;28;868;-55
2021/01/22 00:33:25;;;;;;;;;;;;;;;;;;5033726;28;1971;-55
2021/01/22 00:35:51;;;;;;;;;;;;;;;;;;5032360;28;826;-54
2021/01/22 00:38:17;;;;;;;;;;;;;;;;;;5033734;28;911;-55
2021/01/22 00:40:43;;;;;;;;;;;;;;;;;;5032185;28;1293;-55
2021/01/22 00:43:08;;;;;;;;;;;;;;;;;;5032175;28;1186;-54
2021/01/22 00:45:33;;;;;;;;;;;;;;;;;;5032275;28;1052;-55
2021/01/22 00:47:59;;;;;;;;;;;;;;;;;;5033495;28;794;-55
2021/01/22 00:50:24;;;;;;;;;;;;;;;;;;5032046;28;1167;-61
2021/01/22 00:52:51;;;;;;;;;;;;;;;;;;5033228;28;1898;-55
2021/01/22 00:55:17;;;;;;;;;;;;;;;;;;5030672;28;1169;-55
2021/01/22 00:57:43;;;;;;;;;;;;;;;;;;5033211;28;797;-56
2021/01/22 01:00:09;;;;;;;;;;;;;;;;;;5031906;28;1186;-54
2021/01/22 01:02:35;;;;;;;;;;;;;;;;;;5031958;28;1397;-55
2021/01/22 01:05:00;;;;;;;;;;;;;;;;;;5031972;28;1197;-55
2021/01/22 01:07:25;;;;;;;;;;;;;;;;;;5032973;28;921;-55
2021/01/22 01:09:51;;;;;;;;;;;;;;;;;;5033450;28;918;-55
2021/01/22 01:12:16;;;;;;;;;;;;;;;;;;5031668;28;1949;-55
2021/01/22 01:14:42;;;;;;;;;;;;;;;;;;5031652;28;912;-55
2021/01/22 01:17:07;;;;;;;;;;;;;;;;;;5031656;28;1194;-55
2021/01/22 01:19:33;;;;;;;;;;;;;;;;;;5031632;28;1166;-55
2021/01/22 01:21:58;;;;;;;;;;;;;;;;;;5031647;28;1173;-55
2021/01/22 01:24:24;;;;;;;;;;;;;;;;;;5031575;28;1405;-55
2021/01/22 01:26:49;;;;;;;;;;;;;;;;;;5031232;28;1370;-54
2021/01/22 01:29:14;;;;;;;;;;;;;;;;;;5031484;28;1190;-55
2021/01/22 01:31:40;;;;;;;;;;;;;;;;;;5032754;28;953;-55
2021/01/22 01:34:05;;;;;;;;;;;;;;;;;;5031271;28;1963;-55
2021/01/22 01:36:31;;;;;;;;;;;;;;;;;;5032988;28;1007;-55
2021/01/22 01:38:56;;;;;;;;;;;;;;;;;;5032534;28;938;-55
2021/01/22 01:41:22;;;;;;;;;;;;;;;;;;5032528;28;840;-55
2021/01/22 01:43:47;;;;;;;;;;;;;;;;;;5031573;28;868;-55
2021/01/22 01:46:13;;;;;;;;;;;;;;;;;;5031205;28;1356;-55
2021/01/22 01:48:38;;;;;;;;;;;;;;;;;;5031145;28;1162;-55
2021/01/22 01:51:04;;;;;;;;;;;;;;;;;;5032557;28;829;-55
2021/01/22 01:53:30;;;;;;;;;;;;;;;;;;5031161;28;1965;-55
2021/01/22 01:55:55;;;;;;;;;;;;;;;;;;5031081;28;1205;-55
2021/01/22 01:58:22;;;;;;;;;;;;;;;;;;5032276;28;962;-54
2021/01/22 02:00:47;;;;;;;;;;;;;;;;;;5030963;28;1173;-55
2021/01/22 02:03:13;;;;;;;;;;;;;;;;;;5030929;28;1183;-56
2021/01/22 02:05:38;;;;;;;;;;;;;;;;;;5030466;28;876;-55
2021/01/22 02:08:04;;;;;;;;;;;;;;;;;;5031068;28;873;-55
2021/01/22 02:10:30;;;;;;;;;;;;;;;;;;5032087;28;813;-56
2021/01/22 02:12:56;;;;;;;;;;;;;;;;;;5030712;28;1930;-55
2021/01/22 02:15:22;;;;;;;;;;;;;;;;;;5030757;28;1255;-55
2021/01/22 02:17:48;;;;;;;;;;;;;;;;;;5030736;28;1150;-55
2021/01/22 02:20:17;;;;;;;;;;;;;;;;;;5030687;28;818;-54
2021/01/22 02:22:43;;;;;;;;;;;;;;;;;;5031940;28;872;-55
2021/01/22 02:25:10;;;;;;;;;;;;;;;;;;5030238;28;1504;-55
2021/01/22 02:27:36;;;;;;;;;;;;;;;;;;5031982;28;837;-55
2021/01/22 02:30:02;;;;;;;;;;;;;;;;;;5032321;28;1361;-55
2021/01/22 02:32:28;;;;;;;;;;;;;;;;;;5030432;28;1906;-55
2021/01/22 02:34:56;;;;;;;;;;;;;;;;;;5030481;28;1343;-55
2021/01/22 02:37:22;;;;;;;;;;;;;;;;;;5030390;28;2559;-55
2021/01/22 02:39:50;;;;;;;;;;;;;;;;;;5031700;28;915;-55
2021/01/22 02:42:16;;;;;;;;;;;;;;;;;;5030319;28;1303;-56
2021/01/22 02:44:43;;;;;;;;;;;;;;;;;;5031946;28;870;-55
2021/01/22 02:47:09;;;;;;;;;;;;;;;;;;5030333;28;1404;-55
2021/01/22 02:49:36;;;;;;;;;;;;;;;;;;5031631;28;801;-55
2021/01/22 02:52:01;;;;;;;;;;;;;;;;;;5030073;28;1957;-55
2021/01/22 02:54:27;;;;;;;;;;;;;;;;;;5030146;28;885;-55
2021/01/22 02:56:53;;;;;;;;;;;;;;;;;;5030111;28;1324;-55
2021/01/22 02:59:21;;;;;;;;;;;;;;;;;;5030089;28;1298;-55
2021/01/22 03:01:53;;;;;;;;;;;;;;;;;;5031215;28;1089;-55
2021/01/22 03:04:19;;;;;;;;;;;;;;;;;;5029795;28;1198;-55
2021/01/22 03:06:46;;;;;;;;;;;;;;;;;;5029965;28;1281;-55
2021/01/22 03:09:16;;;;;;;;;;;;;;;;;;5029993;28;1438;-55
2021/01/22 03:11:43;;;;;;;;;;;;;;;;;;5031561;28;844;-55
2021/01/22 03:14:09;;;;;;;;;;;;;;;;;;5031205;28;1894;-55
2021/01/22 03:16:35;;;;;;;;;;;;;;;;;;5029802;28;1601;-55
2021/01/22 03:19:02;;;;;;;;;;;;;;;;;;5029060;28;1300;-55
2021/01/22 03:21:27;;;;;;;;;;;;;;;;;;5029812;28;958;-55
2021/01/22 03:23:53;;;;;;;;;;;;;;;;;;5029738;28;849;-55
2021/01/22 03:26:19;;;;;;;;;;;;;;;;;;5030606;28;1290;-55
2021/01/22 03:28:45;;;;;;;;;;;;;;;;;;5029702;28;1294;-55
2021/01/22 03:31:10;;;;;;;;;;;;;;;;;;5029617;28;889;-55
2021/01/22 03:33:36;;;;;;;;;;;;;;;;;;5030874;28;1979;-55
2021/01/22 03:36:03;;;;;;;;;;;;;;;;;;5029594;28;901;-55
2021/01/22 03:38:28;;;;;;;;;;;;;;;;;;5029565;28;1264;-55
2021/01/22 03:40:53;;;;;;;;;;;;;;;;;;5029607;28;945;-55
2021/01/22 03:43:19;;;;;;;;;;;;;;;;;;5029499;28;2026;-55
2021/01/22 03:45:44;;;;;;;;;;;;;;;;;;5029441;28;1250;-55
2021/01/22 03:48:10;;;;;;;;;;;;;;;;;;5029514;28;1170;-55
2021/01/22 03:50:35;;;;;;;;;;;;;;;;;;5030699;28;872;-55
2021/01/22 03:53:00;;;;;;;;;;;;;;;;;;5029301;28;1961;-55
2021/01/22 03:55:26;;;;;;;;;;;;;;;;;;5029279;28;872;-55
2021/01/22 03:57:51;;;;;;;;;;;;;;;;;;5029335;28;1659;-55
2021/01/22 04:00:17;;;;;;;;;;;;;;;;;;5029203;28;1165;-55
2021/01/22 04:02:42;;;;;;;;;;;;;;;;;;5030782;28;816;-55
2021/01/22 04:05:09;;;;;;;;;;;;;;;;;;5029337;28;1219;-55
2021/01/22 04:07:34;;;;;;;;;;;;;;;;;;5029202;28;1298;-54
2021/01/22 04:10:00;;;;;;;;;;;;;;;;;;5030487;28;876;-55
2021/01/22 04:12:25;;;;;;;;;;;;;;;;;;5030625;28;1902;-55
2021/01/22 04:14:51;;;;;;;;;;;;;;;;;;5029077;28;1154;-55
2021/01/22 04:17:16;;;;;;;;;;;;;;;;;;5029132;28;1366;-55
2021/01/22 04:19:44;;;;;;;;;;;;;;;;;;5029203;28;932;-55
2021/01/22 04:22:10;;;;;;;;;;;;;;;;;;5029185;28;1217;-55
2021/01/22 04:24:35;;;;;;;;;;;;;;;;;;5028810;28;1314;-55
2021/01/22 04:27:01;;;;;;;;;;;;;;;;;;5028667;28;1291;-55
2021/01/22 04:29:26;;;;;;;;;;;;;;;;;;5032075;28;819;-55
2021/01/22 04:31:52;;;;;;;;;;;;;;;;;;5032357;28;769;-55
2021/01/22 04:34:17;;;;;;;;;;;;;;;;;;5032282;28;1903;-55
2021/01/22 04:36:43;;;;;;;;;;;;;;;;;;5032414;28;1167;-56
2021/01/22 04:39:09;;;;;;;;;;;;;;;;;;5032253;28;1313;-55
2021/01/22 04:41:35;;;;;;;;;;;;;;;;;;5032223;28;1363;-55
2021/01/22 04:44:01;;;;;;;;;;;;;;;;;;5033673;28;912;-55
2021/01/22 04:46:34;;;;;;;;;;;;;;;;;;5032113;28;2207;-55
2021/01/22 04:49:00;;;;;;;;;;;;;;;;;;5033471;28;810;-55
2021/01/22 04:51:26;;;;;;;;;;;;;;;;;;5032059;28;1643;-55
2021/01/22 04:53:53;;;;;;;;;;;;;;;;;;5032000;28;1898;-55
2021/01/22 04:56:19;;;;;;;;;;;;;;;;;;5032030;28;882;-55
2021/01/22 04:58:48;;;;;;;;;;;;;;;;;;5032128;28;904;-56
2021/01/22 05:01:14;;;;;;;;;;;;;;;;;;5033620;28;786;-55
2021/01/22 05:03:39;;;;;;;;;;;;;;;;;;5031939;28;908;-54
2021/01/22 05:06:04;;;;;;;;;;;;;;;;;;5033427;28;823;-55
2021/01/22 05:08:30;;;;;;;;;;;;;;;;;;5033472;28;967;-55
2021/01/22 05:10:55;;;;;;;;;;;;;;;;;;5033462;28;781;-55
2021/01/22 05:13:21;;;;;;;;;;;;;;;;;;5031736;28;1947;-55
2021/01/22 05:16:06;;;;;;;;;;;;;;;;;;5031777;28;1181;-56
2021/01/22 05:18:32;;;;;;;;;;;;;;;;;;5031440;28;1704;-55
2021/01/22 05:21:05;;;;;;;;;;;;;;;;;;5033188;28;868;-55
2021/01/22 05:23:32;;;;;;;;;;;;;;;;;;5033234;28;885;-55
2021/01/22 05:26:00;;;;;;;;;;;;;;;;;;5031383;28;1337;-55
2021/01/22 05:28:29;;;;;;;;;;;;;;;;;;5031491;28;1187;-55
2021/01/22 05:30:55;;;;;;;;;;;;;;;;;;5032801;28;1142;-55
2021/01/22 05:33:20;;;;;;;;;;;;;;;;;;5031430;28;1906;-55
2021/01/22 05:35:45;;;;;;;;;;;;;;;;;;5031483;28;1154;-55
2021/01/22 05:38:11;;;;;;;;;;;;;;;;;;5032558;28;869;-56
2021/01/22 05:40:36;;;;;;;;;;;;;;;;;;5030534;28;1174;-57
2021/01/22 05:43:02;;;;;;;;;;;;;;;;;;5032556;28;774;-55
2021/01/22 05:45:47;;;;;;;;;;;;;;;;;;5031215;28;1158;-55
2021/01/22 05:48:17;;;;;;;;;;;;;;;;;;5030942;28;1178;-55
2021/01/22 05:50:45;;;;;;;;;;;;;;;;;;5031177;28;1198;-55
2021/01/22 05:53:12;;;;;;;;;;;;;;;;;;5031039;28;1947;-56
2021/01/22 05:55:37;;;;;;;;;;;;;;;;;;5031127;28;1201;-55
2021/01/22 05:58:02;;;;;;;;;;;;;;;;;;5031027;28;861;-54
2021/01/22 06:00:28;;;;;;;;;;;;;;;;;;5030978;28;1586;-54
2021/01/22 06:02:54;;;;;;;;;;;;;;;;;;5032596;28;790;-60
2021/01/22 06:05:22;;;;;;;;;;;;;;;;;;5031021;28;1190;-55
2021/01/22 06:08:03;;;;;;;;;;;;;;;;;;5032547;28;929;-55
2021/01/22 06:10:29;;;;;;;;;;;;;;;;;;5032517;28;806;-55
2021/01/22 06:12:54;;;;;;;;;;;;;;;;;;5032281;28;1890;-55
2021/01/22 06:15:22;;;;;;;;;;;;;;;;;;5032254;28;894;-55
2021/01/22 06:17:48;;;;;;;;;;;;;;;;;;5030889;28;1163;-55
2021/01/22 06:20:15;;;;;;;;;;;;;;;;;;5030729;28;1411;-55
2021/01/22 06:22:42;;;;;;;;;;;;;;;;;;5031968;28;802;-55
2021/01/22 06:25:09;;;;;;;;;;;;;;;;;;5030381;28;2528;-55
2021/01/22 06:27:35;;;;;;;;;;;;;;;;;;5031841;28;872;-55
2021/01/22 06:30:01;;;;;;;;;;;;;;;;;;5030555;28;1166;-58
2021/01/22 06:32:28;;;;;;;;;;;;;;;;;;5030500;28;1910;-55
2021/01/22 06:34:54;;;;;;;;;;;;;;;;;;5030598;28;1056;-55
2021/01/22 06:37:20;;;;;;;;;;;;;;;;;;5030575;28;1363;-55
2021/01/22 06:39:46;;;;;;;;;;;;;;;;;;5031683;28;786;-54
2021/01/22 06:42:12;;;;;;;;;;;;;;;;;;5031844;28;932;-61
2021/01/22 06:44:37;;;;;;;;;;;;;;;;;;5030402;28;901;-55
2021/01/22 06:47:12;;;;;;;;;;;;;;;;;;5031551;28;813;-55
2021/01/22 06:49:39;;;;;;;;;;;;;;;;;;5031627;28;852;-55
2021/01/22 06:52:13;;;;;;;;;;;;;;;;;;5031689;28;1956;-55
2021/01/22 06:54:58;;;;;;;;;;;;;;;;;;5031526;28;848;-60
2021/01/22 06:57:24;;;;;;;;;;;;;;;;;;5031566;28;872;-56
2021/01/22 06:59:49;;;;;;;;;;;;;;;;;;5031790;28;850;-56
2021/01/22 07:02:36;;;;;;;;;;;;;;;;;;5031374;28;864;-55
2021/01/22 07:05:02;;;;;;;;;;;;;;;;;;5031021;28;931;-56
2021/01/22 07:07:47;;;;;;;;;;;;;;;;;;5030111;28;1169;-62
2021/01/22 07:10:13;;;;;;;;;;;;;;;;;;5029724;28;885;-55
2021/01/22 07:12:40;;;;;;;;;;;;;;;;;;5029788;28;1898;-55
2021/01/22 07:15:26;;;;;;;;;;;;;;;;;;5029931;28;873;-56
2021/01/22 07:17:55;;;;;;;;;;;;;;;;;;5031634;28;844;-56
2021/01/22 07:20:21;;;;;;;;;;;;;;;;;;5029936;28;826;-54
2021/01/22 07:22:59;;;;;;;;;;;;;;;;;;5031019;28;893;-55
2021/01/22 07:25:46;;;;;;;;;;;;;;;;;;5029448;28;1438;-55
2021/01/22 07:28:11;;;;;;;;;;;;;;;;;;5031038;28;865;-55
2021/01/22 07:30:38;;;;;;;;;;;;;;;;;;5031012;28;916;-62
2021/01/22 07:33:23;;;;;;;;;;;;;;;;;;5029601;28;1980;-55
2021/01/22 07:35:49;;;;;;;;;;;;;;;;;;5030814;28;1689;-56
2021/01/22 07:38:22;;;;;;;;;;;;;;;;;;5029594;28;1161;-57
2021/01/22 07:40:47;;;;;;;;;;;;;;;;;;5029415;28;1829;-62
2021/01/22 07:43:13;;;;;;;;;;;;;;;;;;5031054;28;842;-57
2021/01/22 07:45:38;;;;;;;;;;;;;;;;;;5029510;28;1162;-55
2021/01/22 07:48:04;;;;;;;;;;;;;;;;;;5030782;28;828;-55
2021/01/22 07:50:31;;;;;;;;;;;;;;;;;;5031030;28;881;-55
2021/01/22 07:52:57;;;;;;;;;;;;;;;;;;5030684;28;1955;-55
2021/01/22 07:55:23;;;;;;;;;;;;;;;;;;5030899;28;793;-55
2021/01/22 07:58:08;;;;;;;;;;;;;;;;;;5030877;28;853;-55
2021/01/22 08:00:37;;;;;;;;;;;;;;;;;;5028998;28;1205;-55
2021/01/22 08:03:03;;;;;;;;;;;;;;;;;;5030560;28;958;-55
2021/01/22 08:05:29;;;;;;;;;;;;;;;;;;5032783;28;1591;-56
2021/01/22 08:07:54;;;;;;;;;;;;;;;;;;5032893;28;1199;-55
2021/01/22 08:10:27;;;;;;;;;;;;;;;;;;5032718;28;1367;-55
2021/01/22 08:12:55;;;;;;;;;;;;;;;;;;5032508;28;1890;-55
2021/01/22 08:15:21;;;;;;;;;;;;;;;;;;5032682;28;1387;-55
2021/01/22 08:17:47;;;;;;;;;;;;;;;;;;5032537;28;1419;-56
2021/01/22 08:20:13;;;;;;;;;;;;;;;;;;5032566;28;1205;-55
2021/01/22 08:22:39;;;;;;;;;;;;;;;;;;5032533;28;1197;-55
2021/01/22 08:25:05;;;;;;;;;;;;;;;;;;5032345;28;1272;-55
2021/01/22 08:27:30;;;;;;;;;;;;;;;;;;5032181;28;1777;-57
2021/01/22 08:29:56;;;;;;;;;;;;;;;;;;5032585;28;1162;-62
2021/01/22 08:32:22;;;;;;;;;;;;;;;;;;5033598;28;1902;-55
2021/01/22 08:34:48;;;;;;;;;;;;;;;;;;5033680;28;857;-54
2021/01/22 08:37:15;;;;;;;;;;;;;;;;;;5033311;28;1024;-55
2021/01/22 08:40:00;;;;;;;;;;;;;;;;;;5033512;28;817;-59
2021/01/22 08:42:26;;;;;;;;;;;;;;;;;;5032171;28;1309;-55
2021/01/22 08:44:53;;;;;;;;;;;;;;;;;;5033521;28;810;-55
2021/01/22 08:47:18;;;;;;;;;;;;;;;;;;5032196;28;1347;-55
2021/01/22 08:50:04;;;;;;;;;;;;;;;;;;5033468;28;844;-56
2021/01/22 08:52:30;;;;;;;;;;;;;;;;;;5033387;28;1895;-55
2021/01/22 08:54:58;;;;;;;;;;;;;;;;;;5032315;28;1162;-55
2021/01/22 08:57:24;;;;;;;;;;;;;;;;;;5032016;28;1233;-55
2021/01/22 08:59:52;;;;;;;;;;;;;;;;;;5032032;28;1356;-55
2021/01/22 09:02:38;;;;;;;;;;;;;;;;;;5033001;28;1023;-57
2021/01/22 09:05:09;;;;;;;;;;;;;;;;;;5033310;28;903;-55
2021/01/22 09:07:34;;;;;;;;;;;;;;;;;;5031739;28;1228;-55
2021/01/22 09:10:00;;;;;;;;;;;;;;;;;;5033232;28;802;-55
2021/01/22 09:12:26;;;;;;;;;;;;;;;;;;5032009;28;2117;-55
2021/01/22 09:14:54;;;;;;;;;;;;;;;;;;5031258;28;1241;-55
2021/01/22 09:17:24;;;;;;;;;;;;;;;;;;5031406;28;1189;-55
2021/01/22 09:19:50;;;;;;;;;;;;;;;;;;5031615;28;1369;-55
2021/01/22 09:22:22;;;;;;;;;;;;;;;;;;5033127;28;811;-56
2021/01/22 09:24:47;;;;;;;;;;;;;;;;;;5032668;28;1287;-55
2021/01/22 09:27:13;;;;;;;;;;;;;;;;;;5031561;28;1360;-62
2021/01/22 09:29:38;;;;;;;;;;;;;;;;;;5031494;28;1242;-60
2021/01/22 09:32:07;;;;;;;;;;;;;;;;;;5031408;28;1206;-56
2021/01/22 09:34:32;;;;;;;;;;;;;;;;;;5032673;28;1922;-55
2021/01/22 09:36:59;;;;;;;;;;;;;;;;;;5031474;28;1186;-55
2021/01/22 09:39:25;;;;;;;;;;;;;;;;;;5032602;28;856;-59
2021/01/22 09:41:50;;;;;;;;;;;;;;;;;;5032557;28;924;-56
2021/01/22 09:44:16;;;;;;;;;;;;;;;;;;5032835;28;913;-55
2021/01/22 09:46:41;;;;;;;;;;;;;;;;;;5032784;28;832;-56
2021/01/22 09:49:07;;;;;;;;;;;;;;;;;;5032595;28;833;-54
2021/01/22 09:51:32;;;;;;;;;;;;;;;;;;5032670;28;783;-60
2021/01/22 09:53:58;;;;;;;;;;;;;;;;;;5031126;28;1890;-62
2021/01/22 09:56:23;;;;;;;;;;;;;;;;;;5032369;28;861;-58
2021/01/22 09:58:48;;;;;;;;;;;;;;;;;;5032327;28;774;-57
2021/01/22 10:01:14;;;;;;;;;;;;;;;;;;5031027;28;1190;-58
2021/01/22 10:03:39;;;;;;;;;;;;;;;;;;5030938;28;1173;-55
2021/01/22 10:06:05;;;;;;;;;;;;;;;;;;5031091;28;1380;-55
2021/01/22 10:08:30;;;;;;;;;;;;;;;;;;5031076;28;1386;-55
2021/01/22 10:10:56;;;;;;;;;;;;;;;;;;5030910;28;2463;-55
2021/01/22 10:13:21;;;;;;;;;;;;;;;;;;5032050;28;1894;-55
2021/01/22 10:15:46;;;;;;;;;;;;;;;;;;5032290;28;798;-55
2021/01/22 10:18:13;;;;;;;;;;;;;;;;;;5032039;28;861;-55
2021/01/22 10:20:38;;;;;;;;;;;;;;;;;;5031991;28;878;-55
2021/01/22 10:23:04;;;;;;;;;;;;;;;;;;5030815;28;1370;-55
2021/01/22 10:25:29;;;;;;;;;;;;;;;;;;5030438;28;1606;-55
2021/01/22 10:27:54;;;;;;;;;;;;;;;;;;5030282;28;871;-55
2021/01/22 10:30:20;;;;;;;;;;;;;;;;;;5030906;28;1754;-56
2021/01/22 10:32:45;;;;;;;;;;;;;;;;;;5031828;28;1914;-56
2021/01/22 10:35:11;;;;;;;;;;;;;;;;;;5031976;28;893;-59
2021/01/22 10:37:37;;;;;;;;;;;;;;;;;;5030473;28;1163;-55
2021/01/22 10:40:02;;;;;;;;;;;;;;;;;;5030514;28;1207;-56
2021/01/22 10:42:28;;;;;;;;;;;;;;;;;;5032196;28;973;-56
2021/01/22 10:44:53;;;;;;;;;;;;;;;;;;5030336;28;762;-55
2021/01/22 10:47:19;;;;;;;;;;;;;;;;;;5030237;28;1174;-54
2021/01/22 10:49:44;;;;;;;;;;;;;;;;;;5030479;28;861;-55
2021/01/22 10:52:09;;;;;;;;;;;;;;;;;;5031693;28;878;-55
2021/01/22 10:54:35;;;;;;;;;;;;;;;;;;5030295;28;1951;-55
2021/01/22 10:57:00;;;;;;;;;;;;;;;;;;5030164;28;1287;-55
2021/01/22 10:59:26;;;;;;;;;;;;;;;;;;5031663;28;917;-55
2021/01/22 11:01:51;;;;;;;;;;;;;;;;;;5031395;28;882;-55
2021/01/22 11:04:17;;;;;;;;;;;;;;;;;;5030102;28;850;-54
2021/01/22 11:06:42;;;;;;;;;;;;;;;;;;5031358;28;802;-55
2021/01/22 11:09:08;;;;;;;;;;;;;;;;;;5029960;28;1377;-57
2021/01/22 11:11:33;;;;;;;;;;;;;;;;;;5030070;28;1192;-55
2021/01/22 11:13:59;;;;;;;;;;;;;;;;;;5029931;28;1961;-56
2021/01/22 11:16:24;;;;;;;;;;;;;;;;;;5031297;28;841;-55
2021/01/22 11:18:50;;;;;;;;;;;;;;;;;;5031358;28;919;-55
2021/01/22 11:21:15;;;;;;;;;;;;;;;;;;5029826;28;1293;-55
2021/01/22 11:23:40;;;;;;;;;;;;;;;;;;5029741;28;1182;-54
2021/01/22 11:26:06;;;;;;;;;;;;;;;;;;5029478;28;1308;-54
2021/01/22 11:28:32;;;;;;;;;;;;;;;;;;5029718;28;1166;-55
2021/01/22 11:30:58;;;;;;;;;;;;;;;;;;5031231;28;815;-55
2021/01/22 11:33:24;;;;;;;;;;;;;;;;;;5030930;28;1949;-54
2021/01/22 11:35:49;;;;;;;;;;;;;;;;;;5029627;28;2372;-55
2021/01/22 11:38:14;;;;;;;;;;;;;;;;;;5028752;28;1265;-54
2021/01/22 11:40:40;;;;;;;;;;;;;;;;;;5029536;28;1194;-55
2021/01/22 11:43:06;;;;;;;;;;;;;;;;;;5029627;28;1198;-56
2021/01/22 11:45:31;;;;;;;;;;;;;;;;;;5030878;28;881;-55
2021/01/22 11:47:56;;;;;;;;;;;;;;;;;;5030768;28;921;-55
2021/01/22 11:50:22;;;;;;;;;;;;;;;;;;5029423;28;1360;-54
2021/01/22 11:52:47;;;;;;;;;;;;;;;;;;5030959;28;1898;-55
2021/01/22 11:55:13;;;;;;;;;;;;;;;;;;5029353;28;1171;-55
2021/01/22 11:57:38;;;;;;;;;;;;;;;;;;5029474;28;2282;-55
2021/01/22 12:00:04;;;;;;;;;;;;;;;;;;5029355;28;1284;-55
2021/01/22 12:02:29;;;;;;;;;;;;;;;;;;5030603;28;855;-55
2021/01/22 12:04:55;;;;;;;;;;;;;;;;;;5029302;28;897;-55
2021/01/22 12:07:20;;;;;;;;;;;;;;;;;;5030470;28;935;-54
2021/01/22 12:09:46;;;;;;;;;;;;;;;;;;5030783;28;790;-55
2021/01/22 12:12:11;;;;;;;;;;;;;;;;;;5029369;28;825;-57
2021/01/22 12:14:37;;;;;;;;;;;;;;;;;;5028964;28;1890;-55
2021/01/22 12:17:02;;;;;;;;;;;;;;;;;;5029176;28;1156;-55
2021/01/22 12:19:28;;;;;;;;;;;;;;;;;;5030608;28;1002;-55
2021/01/22 12:21:53;;;;;;;;;;;;;;;;;;5030355;28;929;-54
2021/01/22 12:24:18;;;;;;;;;;;;;;;;;;5028801;28;1362;-55
2021/01/22 12:26:44;;;;;;;;;;;;;;;;;;5030663;28;786;-55
2021/01/22 12:29:09;;;;;;;;;;;;;;;;;;5029180;28;1178;-55
2021/01/22 12:31:35;;;;;;;;;;;;;;;;;;5029002;28;1207;-56
2021/01/22 12:34:00;;;;;;;;;;;;;;;;;;5030104;28;1906;-55
2021/01/22 12:36:26;;;;;;;;;;;;;;;;;;5028941;28;1439;-55
2021/01/22 12:38:51;;;;;;;;;;;;;;;;;;5030130;28;948;-55
2021/01/22 12:41:17;;;;;;;;;;;;;;;;;;5030144;28;782;-56
2021/01/22 12:43:42;;;;;;;;;;;;;;;;;;5030148;28;1179;-56
2021/01/22 12:46:08;;;;;;;;;;;;;;;;;;5028801;28;1294;-55
2021/01/22 12:48:33;;;;;;;;;;;;;;;;;;5028803;28;1161;-56
2021/01/22 12:50:59;;;;;;;;;;;;;;;;;;5031326;28;1181;-55
2021/01/22 12:53:24;;;;;;;;;;;;;;;;;;5031967;28;1953;-55
2021/01/22 12:55:50;;;;;;;;;;;;;;;;;;5032069;28;1178;-54
2021/01/22 12:58:16;;;;;;;;;;;;;;;;;;5032011;28;1273;-55
2021/01/22 13:00:41;;;;;;;;;;;;;;;;;;5032108;28;1198;-55
2021/01/22 13:03:07;;;;;;;;;;;;;;;;;;5033218;28;806;-56
2021/01/22 13:05:32;;;;;;;;;;;;;;;;;;5033387;28;816;-55
2021/01/22 13:07:58;;;;;;;;;;;;;;;;;;5033136;28;806;-54
2021/01/22 13:10:23;;;;;;;;;;;;;;;;;;5031797;28;1168;-55
2021/01/22 13:12:49;;;;;;;;;;;;;;;;;;5031786;28;1886;-55
2021/01/22 13:15:15;;;;;;;;;;;;;;;;;;5033484;28;829;-55
2021/01/22 13:17:40;;;;;;;;;;;;;;;;;;5032023;28;1206;-55
2021/01/22 13:20:08;;;;;;;;;;;;;;;;;;5033002;28;802;-55
2021/01/22 13:22:34;;;;;;;;;;;;;;;;;;5031979;28;1244;-54
2021/01/22 13:25:00;;;;;;;;;;;;;;;;;;5031467;28;1225;-55
2021/01/22 13:27:26;;;;;;;;;;;;;;;;;;5032956;28;1122;-55
2021/01/22 13:29:52;;;;;;;;;;;;;;;;;;5031480;28;1219;-55
2021/01/22 13:32:18;;;;;;;;;;;;;;;;;;5031479;28;1169;-55
2021/01/22 13:34:44;;;;;;;;;;;;;;;;;;5032899;28;872;-55
2021/01/22 13:37:10;;;;;;;;;;;;;;;;;;5031416;28;1198;-56
2021/01/22 13:39:35;;;;;;;;;;;;;;;;;;5031406;28;932;-54
2021/01/22 13:42:00;;;;;;;;;;;;;;;;;;5031314;28;1280;-60
2021/01/22 13:44:26;;;;;;;;;;;;;;;;;;5032845;28;802;-55
2021/01/22 13:46:51;;;;;;;;;;;;;;;;;;5031285;28;1162;-55
2021/01/22 13:49:17;;;;;;;;;;;;;;;;;;5031279;28;1158;-54
2021/01/22 13:51:42;;;;;;;;;;;;;;;;;;5031157;28;877;-55
2021/01/22 13:54:07;;;;;;;;;;;;;;;;;;5031106;28;1906;-55
2021/01/22 13:56:33;;;;;;;;;;;;;;;;;;5032443;28;833;-56
2021/01/22 13:58:58;;;;;;;;;;;;;;;;;;5031370;28;1193;-55
2021/01/22 14:01:24;;;;;;;;;;;;;;;;;;5031594;28;858;-56
2021/01/22 14:03:49;;;;;;;;;;;;;;;;;;5031330;28;893;-55
2021/01/22 14:06:14;;;;;;;;;;;;;;;;;;5031041;28;1363;-55
2021/01/22 14:08:40;;;;;;;;;;;;;;;;;;5030878;28;1181;-56
2021/01/22 14:11:05;;;;;;;;;;;;;;;;;;5030954;28;1150;-55
2021/01/22 14:13:31;;;;;;;;;;;;;;;;;;5030730;28;1895;-56
2021/01/22 14:15:56;;;;;;;;;;;;;;;;;;5030835;28;874;-55
2021/01/22 14:18:22;;;;;;;;;;;;;;;;;;5030809;28;1372;-55
2021/01/22 14:20:47;;;;;;;;;;;;;;;;;;5032478;28;1002;-55
2021/01/22 14:23:13;;;;;;;;;;;;;;;;;;5031956;28;922;-55
2021/01/22 14:25:38;;;;;;;;;;;;;;;;;;5031722;28;1269;-54
2021/01/22 14:28:04;;;;;;;;;;;;;;;;;;5030691;28;894;-55
2021/01/22 14:30:29;;;;;;;;;;;;;;;;;;5030592;28;845;-55
2021/01/22 14:32:54;;;;;;;;;;;;;;;;;;5030490;28;1971;-55
2021/01/22 14:35:21;;;;;;;;;;;;;;;;;;5030852;28;1197;-55
2021/01/22 14:37:46;;;;;;;;;;;;;;;;;;5030608;28;837;-61
2021/01/22 14:40:13;;;;;;;;;;;;;;;;;;5030526;28;1205;-56
2021/01/22 14:42:39;;;;;;;;;;;;;;;;;;5030476;28;1404;-60
2021/01/22 14:45:05;;;;;;;;;;;;;;;;;;5030352;28;1331;-55
2021/01/22 14:47:30;;;;;;;;;;;;;;;;;;5030340;28;1193;-55
2021/01/22 14:49:56;;;;;;;;;;;;;;;;;;5030330;28;1205;-55
2021/01/22 14:52:21;;;;;;;;;;;;;;;;;;5030219;28;1915;-55
2021/01/22 14:54:48;;;;;;;;;;;;;;;;;;5030400;28;1367;-56
2021/01/22 14:57:14;;;;;;;;;;;;;;;;;;5030197;28;822;-55
2021/01/22 14:59:39;;;;;;;;;;;;;;;;;;5030150;28;1290;-55
2021/01/22 15:02:05;;;;;;;;;;;;;;;;;;5030084;28;1181;-55
2021/01/22 15:04:30;;;;;;;;;;;;;;;;;;5030053;28;1412;-55
2021/01/22 15:06:56;;;;;;;;;;;;;;;;;;5030006;28;1272;-55
2021/01/22 15:09:21;;;;;;;;;;;;;;;;;;5030100;28;1663;-55
2021/01/22 15:11:47;;;;;;;;;;;;;;;;;;5031247;28;782;-55
2021/01/22 15:14:12;;;;;;;;;;;;;;;;;;5030001;28;1898;-54
2021/01/22 15:16:38;;;;;;;;;;;;;;;;;;5029895;28;1163;-55
2021/01/22 15:19:03;;;;;;;;;;;;;;;;;;5031186;28;881;-54
2021/01/22 15:21:29;;;;;;;;;;;;;;;;;;5031359;28;880;-56
2021/01/22 15:23:54;;;;;;;;;;;;;;;;;;5029772;28;1170;-55
2021/01/22 15:26:20;;;;;;;;;;;;;;;;;;5030791;28;1576;-55
2021/01/22 15:28:46;;;;;;;;;;;;;;;;;;5031068;28;1034;-56
2021/01/22 15:31:11;;;;;;;;;;;;;;;;;;5029750;28;2593;-55
2021/01/22 15:33:37;;;;;;;;;;;;;;;;;;5030968;28;1971;-56
2021/01/22 15:36:03;;;;;;;;;;;;;;;;;;5029598;28;1296;-56
2021/01/22 15:38:29;;;;;;;;;;;;;;;;;;5029737;28;897;-56
2021/01/22 15:40:54;;;;;;;;;;;;;;;;;;5029548;28;1166;-55
2021/01/22 15:43:20;;;;;;;;;;;;;;;;;;5029621;28;1905;-55
2021/01/22 15:45:45;;;;;;;;;;;;;;;;;;5029531;28;1302;-54
2021/01/22 15:48:11;;;;;;;;;;;;;;;;;;5030830;28;1006;-55
2021/01/22 15:50:36;;;;;;;;;;;;;;;;;;5029363;28;1221;-55
2021/01/22 15:53:01;;;;;;;;;;;;;;;;;;5029293;28;1879;-55
2021/01/22 15:55:27;;;;;;;;;;;;;;;;;;5029800;28;1049;-55
2021/01/22 15:57:52;;;;;;;;;;;;;;;;;;5029459;28;1190;-54
2021/01/22 16:00:18;;;;;;;;;;;;;;;;;;5030792;28;805;-55
2021/01/22 16:02:44;;;;;;;;;;;;;;;;;;5030708;28;797;-56
2021/01/22 16:05:09;;;;;;;;;;;;;;;;;;5029298;28;1181;-56
2021/01/22 16:07:35;;;;;;;;;;;;;;;;;;5029321;28;1182;-56
2021/01/22 16:10:00;;;;;;;;;;;;;;;;;;5029303;28;834;-61
2021/01/22 16:12:25;;;;;;;;;;;;;;;;;;5030679;28;1886;-55
2021/01/22 16:14:51;;;;;;;;;;;;;;;;;;5029327;28;1421;-56
2021/01/22 16:17:16;;;;;;;;;;;;;;;;;;5029166;28;1173;-54
2021/01/22 16:19:42;;;;;;;;;;;;;;;;;;5029069;28;953;-55
2021/01/22 16:22:07;;;;;;;;;;;;;;;;;;5029140;28;1506;-55
2021/01/22 16:24:34;;;;;;;;;;;;;;;;;;5029361;28;1456;-54
2021/01/22 16:26:59;;;;;;;;;;;;;;;;;;5032710;28;1265;-56
2021/01/22 16:29:24;;;;;;;;;;;;;;;;;;5032564;28;1697;-55
2021/01/22 16:31:50;;;;;;;;;;;;;;;;;;5032206;28;1197;-55
2021/01/22 16:34:15;;;;;;;;;;;;;;;;;;5033520;28;1948;-55
2021/01/22 16:36:41;;;;;;;;;;;;;;;;;;5033677;28;825;-58
2021/01/22 16:39:06;;;;;;;;;;;;;;;;;;5033467;28;841;-54
2021/01/22 16:41:32;;;;;;;;;;;;;;;;;;5032520;28;1268;-56
2021/01/22 16:43:58;;;;;;;;;;;;;;;;;;5033853;28;892;-55
2021/01/22 16:46:23;;;;;;;;;;;;;;;;;;5033606;28;809;-55
2021/01/22 16:48:48;;;;;;;;;;;;;;;;;;5032196;28;1381;-55
2021/01/22 16:51:14;;;;;;;;;;;;;;;;;;5033291;28;827;-56
2021/01/22 16:53:40;;;;;;;;;;;;;;;;;;5032102;28;1875;-56
2021/01/22 16:56:06;;;;;;;;;;;;;;;;;;5032063;28;810;-55
2021/01/22 16:58:31;;;;;;;;;;;;;;;;;;5032050;28;1195;-55
2021/01/22 17:00:57;;;;;;;;;;;;;;;;;;5032037;28;1475;-55
2021/01/22 17:03:22;;;;;;;;;;;;;;;;;;5033214;28;865;-56
2021/01/22 17:05:48;;;;;;;;;;;;;;;;;;5031930;28;885;-54